Time,TemperatureF,DewpointF,PressureIn,WindDirection,WindDirectionDegrees,WindSpeedMPH,WindSpeedGustMPH,Humidity,HourlyPrecipIn,Conditions,Clouds,dailyrainin,SoftwareType,DateUTC
2013-01-15 00:00:00,39.0,36.0,-100.00,North,354,3.0,10.0,90,-99.99,,,-99.99,,2013-01-15 05:00:00,
2013-01-15 00:22:00,39.0,36.0,-100.00,North,354,3.0,10.0,90,-99.99,,,-99.99,,2013-01-15 05:22:00,
2013-01-15 00:33:00,39.0,36.0,-100.00,North,354,3.0,10.0,90,-99.99,,,-99.99,,2013-01-15 05:33:00,
2013-01-15 00:42:00,39.0,36.0,-100.00,North,354,3.0,10.0,90,-99.99,,,-99.99,,2013-01-15 05:42:00,
2013-01-15 00:53:00,39.0,36.0,-100.00,North,354,3.0,10.0,90,-99.99,,,-99.99,,2013-01-15 05:53:00,
2013-01-15 01:00:00,39.0,37.0,-100.00,North,354,0.0,7.0,92,-99.99,,,-99.99,,2013-01-15 06:00:00,
2013-01-15 01:22:00,39.0,37.0,-100.00,North,354,0.0,7.0,92,-99.99,,,-99.99,,2013-01-15 06:22:00,
2013-01-15 01:33:00,39.0,37.0,-100.00,North,354,0.0,7.0,92,-99.99,,,-99.99,,2013-01-15 06:33:00,
2013-01-15 01:43:00,39.0,37.0,-100.00,North,354,0.0,7.0,92,-99.99,,,-99.99,,2013-01-15 06:43:00,
2013-01-15 01:53:00,39.0,37.0,-100.00,North,354,0.0,7.0,92,-99.99,,,-99.99,,2013-01-15 06:53:00,
2013-01-15 02:00:00,39.0,37.0,-100.00,ENE,57,5.0,6.0,93,-99.99,,,-99.99,,2013-01-15 07:00:00,
2013-01-15 02:22:00,39.0,37.0,-100.00,ENE,57,5.0,6.0,93,-99.99,,,-99.99,,2013-01-15 07:22:00,
2013-01-15 02:33:00,39.0,37.0,-100.00,ENE,57,5.0,6.0,93,-99.99,,,-99.99,,2013-01-15 07:33:00,
2013-01-15 02:43:00,39.0,37.0,-100.00,ENE,57,5.0,6.0,93,-99.99,,,-99.99,,2013-01-15 07:43:00,
2013-01-15 02:53:00,39.0,37.0,-100.00,ENE,57,5.0,6.0,93,-99.99,,,-99.99,,2013-01-15 07:53:00,
2013-01-15 03:00:00,38.0,36.0,-100.00,North,0,4.0,7.0,94,-99.99,,,-99.99,,2013-01-15 08:00:00,
2013-01-15 03:22:00,38.0,36.0,-100.00,North,0,4.0,7.0,94,-99.99,,,-99.99,,2013-01-15 08:22:00,
2013-01-15 03:33:00,38.0,36.0,-100.00,North,0,4.0,7.0,94,-99.99,,,-99.99,,2013-01-15 08:33:00,
2013-01-15 03:43:00,38.0,36.0,-100.00,North,0,4.0,7.0,94,-99.99,,,-99.99,,2013-01-15 08:43:00,
2013-01-15 03:53:00,38.0,36.0,-100.00,North,0,4.0,7.0,94,-99.99,,,-99.99,,2013-01-15 08:53:00,
2013-01-15 04:00:00,37.0,35.0,-100.00,NW,324,1.0,11.0,91,-99.99,,,-99.99,,2013-01-15 09:00:00,
2013-01-15 04:33:00,37.0,35.0,-100.00,NW,324,1.0,11.0,91,-99.99,,,-99.99,,2013-01-15 09:33:00,
2013-01-15 04:43:00,37.0,35.0,-100.00,NW,324,1.0,11.0,91,-99.99,,,-99.99,,2013-01-15 09:43:00,
2013-01-15 04:52:00,37.0,35.0,-100.00,NW,324,1.0,11.0,91,-99.99,,,-99.99,,2013-01-15 09:52:00,
2013-01-15 05:00:00,36.0,33.0,-100.00,North,0,3.0,11.0,88,-99.99,,,-99.99,,2013-01-15 10:00:00,
2013-01-15 05:22:00,36.0,33.0,-100.00,North,0,3.0,11.0,88,-99.99,,,-99.99,,2013-01-15 10:22:00,
2013-01-15 05:33:00,36.0,33.0,-100.00,North,0,3.0,11.0,88,-99.99,,,-99.99,,2013-01-15 10:33:00,
2013-01-15 05:42:00,36.0,33.0,-100.00,North,0,3.0,11.0,88,-99.99,,,-99.99,,2013-01-15 10:42:00,
2013-01-15 05:52:00,36.0,33.0,-100.00,North,0,3.0,11.0,88,-99.99,,,-99.99,,2013-01-15 10:52:00,
2013-01-15 06:00:00,37.0,33.0,-100.00,NE,35,5.0,10.0,87,-99.99,,,-99.99,,2013-01-15 11:00:00,
2013-01-15 06:23:00,37.0,33.0,-100.00,NE,35,5.0,10.0,87,-99.99,,,-99.99,,2013-01-15 11:23:00,
2013-01-15 06:33:00,37.0,33.0,-100.00,NE,35,5.0,10.0,87,-99.99,,,-99.99,,2013-01-15 11:33:00,
2013-01-15 06:43:00,37.0,33.0,-100.00,NE,35,5.0,10.0,87,-99.99,,,-99.99,,2013-01-15 11:43:00,
2013-01-15 06:53:00,37.0,33.0,-100.00,NE,35,5.0,10.0,87,-99.99,,,-99.99,,2013-01-15 11:53:00,
2013-01-15 07:00:00,36.0,33.0,-100.00,NW,307,0.0,8.0,89,-99.99,,,-99.99,,2013-01-15 12:00:00,
2013-01-15 07:23:00,36.0,33.0,-100.00,NW,307,0.0,8.0,89,-99.99,,,-99.99,,2013-01-15 12:23:00,
2013-01-15 07:33:00,36.0,33.0,-100.00,NW,307,0.0,8.0,89,-99.99,,,-99.99,,2013-01-15 12:33:00,
2013-01-15 07:43:00,36.0,33.0,-100.00,NW,307,0.0,8.0,89,-99.99,,,-99.99,,2013-01-15 12:43:00,
2013-01-15 07:53:00,36.0,33.0,-100.00,NW,307,0.0,8.0,89,-99.99,,,-99.99,,2013-01-15 12:53:00,
2013-01-15 08:00:00,36.0,32.0,-100.00,NNW,340,0.0,7.0,83,-99.99,,,-99.99,,2013-01-15 13:00:00,
2013-01-15 08:23:00,36.0,32.0,-100.00,NNW,340,0.0,7.0,83,-99.99,,,-99.99,,2013-01-15 13:23:00,
2013-01-15 08:33:00,36.0,32.0,-100.00,NNW,340,0.0,7.0,83,-99.99,,,-99.99,,2013-01-15 13:33:00,
2013-01-15 08:43:00,36.0,32.0,-100.00,NNW,340,0.0,7.0,83,-99.99,,,-99.99,,2013-01-15 13:43:00,
2013-01-15 08:53:00,36.0,32.0,-100.00,NNW,340,0.0,7.0,83,-99.99,,,-99.99,,2013-01-15 13:53:00,
2013-01-15 09:00:00,37.0,31.0,-100.00,NNE,12,3.0,8.0,76,-99.99,,,-99.99,,2013-01-15 14:00:00,
2013-01-15 09:23:00,37.0,31.0,-100.00,NNE,12,3.0,8.0,76,-99.99,,,-99.99,,2013-01-15 14:23:00,
2013-01-15 09:33:00,37.0,31.0,-100.00,NNE,12,3.0,8.0,76,-99.99,,,-99.99,,2013-01-15 14:33:00,
2013-01-15 09:43:00,37.0,31.0,-100.00,NNE,12,3.0,8.0,76,-99.99,,,-99.99,,2013-01-15 14:43:00,
2013-01-15 09:54:00,37.0,31.0,-100.00,NNE,12,3.0,8.0,76,-99.99,,,-99.99,,2013-01-15 14:54:00,
2013-01-15 10:00:00,38.0,31.0,-100.00,North,10,5.0,10.0,75,-99.99,,,-99.99,,2013-01-15 15:00:00,
2013-01-15 10:23:00,38.0,31.0,-100.00,North,10,5.0,10.0,75,-99.99,,,-99.99,,2013-01-15 15:23:00,
2013-01-15 10:33:00,38.0,31.0,-100.00,North,10,5.0,10.0,75,-99.99,,,-99.99,,2013-01-15 15:33:00,
2013-01-15 10:43:00,38.0,31.0,-100.00,North,10,5.0,10.0,75,-99.99,,,-99.99,,2013-01-15 15:43:00,
2013-01-15 10:53:00,38.0,31.0,-100.00,North,10,5.0,10.0,75,-99.99,,,-99.99,,2013-01-15 15:53:00,
2013-01-15 11:00:00,38.0,29.0,-100.00,NNE,21,6.0,10.0,71,-99.99,,,-99.99,,2013-01-15 16:00:00,
2013-01-15 11:23:00,38.0,29.0,-100.00,NNE,21,6.0,10.0,71,-99.99,,,-99.99,,2013-01-15 16:23:00,
2013-01-15 11:33:00,38.0,29.0,-100.00,NNE,21,6.0,10.0,71,-99.99,,,-99.99,,2013-01-15 16:33:00,
2013-01-15 11:43:00,38.0,29.0,-100.00,NNE,21,6.0,10.0,71,-99.99,,,-99.99,,2013-01-15 16:43:00,
2013-01-15 11:53:00,38.0,29.0,-100.00,NNE,21,6.0,10.0,71,-99.99,,,-99.99,,2013-01-15 16:53:00,
2013-01-15 12:00:00,38.0,29.0,-100.00,SW,222,3.0,11.0,71,-99.99,,,-99.99,,2013-01-15 17:00:00,
2013-01-15 12:23:00,38.0,29.0,-100.00,SW,222,3.0,11.0,71,-99.99,,,-99.99,,2013-01-15 17:23:00,
2013-01-15 12:33:00,38.0,29.0,-100.00,SW,222,3.0,11.0,71,-99.99,,,-99.99,,2013-01-15 17:33:00,
2013-01-15 12:43:00,38.0,29.0,-100.00,SW,222,3.0,11.0,71,-99.99,,,-99.99,,2013-01-15 17:43:00,
2013-01-15 12:53:00,38.0,29.0,-100.00,SW,222,3.0,11.0,71,-99.99,,,-99.99,,2013-01-15 17:53:00,
2013-01-15 13:00:00,38.0,29.0,-100.00,North,3,5.0,10.0,68,-99.99,,,-99.99,,2013-01-15 18:00:00,
2013-01-15 13:34:00,38.0,29.0,-100.00,North,3,5.0,10.0,68,-99.99,,,-99.99,,2013-01-15 18:34:00,
2013-01-15 13:43:00,38.0,29.0,-100.00,North,3,5.0,10.0,68,-99.99,,,-99.99,,2013-01-15 18:43:00,
2013-01-15 13:54:00,38.0,29.0,-100.00,North,3,5.0,10.0,68,-99.99,,,-99.99,,2013-01-15 18:54:00,
2013-01-15 14:00:00,38.0,28.0,-100.00,NNE,12,0.0,9.0,66,-99.99,,,-99.99,,2013-01-15 19:00:00,
2013-01-15 14:23:00,38.0,28.0,-100.00,NNE,12,0.0,9.0,66,-99.99,,,-99.99,,2013-01-15 19:23:00,
2013-01-15 14:33:00,38.0,28.0,-100.00,NNE,12,0.0,9.0,66,-99.99,,,-99.99,,2013-01-15 19:33:00,
2013-01-15 14:43:00,38.0,28.0,-100.00,NNE,12,0.0,9.0,66,-99.99,,,-99.99,,2013-01-15 19:43:00,
2013-01-15 14:53:00,38.0,28.0,-100.00,NNE,12,0.0,9.0,66,-99.99,,,-99.99,,2013-01-15 19:53:00,
2013-01-15 15:00:00,38.0,27.0,-100.00,North,3,5.0,6.0,65,-99.99,,,-99.99,,2013-01-15 20:00:00,
2013-01-15 15:23:00,38.0,27.0,-100.00,North,3,5.0,6.0,65,-99.99,,,-99.99,,2013-01-15 20:23:00,
2013-01-15 15:33:00,38.0,27.0,-100.00,North,3,5.0,6.0,65,-99.99,,,-99.99,,2013-01-15 20:33:00,
2013-01-15 15:44:00,38.0,27.0,-100.00,North,3,5.0,6.0,65,-99.99,,,-99.99,,2013-01-15 20:44:00,
2013-01-15 15:53:00,38.0,27.0,-100.00,North,3,5.0,6.0,65,-99.99,,,-99.99,,2013-01-15 20:53:00,
2013-01-15 16:00:00,38.0,28.0,-100.00,NNE,17,0.0,5.0,66,-99.99,,,-99.99,,2013-01-15 21:00:00,
2013-01-15 16:23:00,38.0,28.0,-100.00,NNE,17,0.0,5.0,66,-99.99,,,-99.99,,2013-01-15 21:23:00,
2013-01-15 16:34:00,38.0,28.0,-100.00,NNE,17,0.0,5.0,66,-99.99,,,-99.99,,2013-01-15 21:34:00,
2013-01-15 16:43:00,38.0,28.0,-100.00,NNE,17,0.0,5.0,66,-99.99,,,-99.99,,2013-01-15 21:43:00,
2013-01-15 16:53:00,38.0,28.0,-100.00,NNE,17,0.0,5.0,66,-99.99,,,-99.99,,2013-01-15 21:53:00,
2013-01-15 17:00:00,38.0,28.0,-100.00,NNW,346,2.0,7.0,66,-99.99,,,-99.99,,2013-01-15 22:00:00,
2013-01-15 17:23:00,38.0,28.0,-100.00,NNW,346,2.0,7.0,66,-99.99,,,-99.99,,2013-01-15 22:23:00,
2013-01-15 17:33:00,38.0,28.0,-100.00,NNW,346,2.0,7.0,66,-99.99,,,-99.99,,2013-01-15 22:33:00,
2013-01-15 17:43:00,38.0,28.0,-100.00,NNW,346,2.0,7.0,66,-99.99,,,-99.99,,2013-01-15 22:43:00,
2013-01-15 17:53:00,38.0,28.0,-100.00,NNW,346,2.0,7.0,66,-99.99,,,-99.99,,2013-01-15 22:53:00,
2013-01-15 18:00:00,38.0,28.0,-100.00,North,2,0.0,8.0,66,-99.99,,,-99.99,,2013-01-15 23:00:00,
2013-01-15 18:23:00,38.0,28.0,-100.00,North,2,0.0,8.0,66,-99.99,,,-99.99,,2013-01-15 23:23:00,
2013-01-15 18:33:00,38.0,28.0,-100.00,North,2,0.0,8.0,66,-99.99,,,-99.99,,2013-01-15 23:33:00,
2013-01-15 18:43:00,38.0,28.0,-100.00,North,2,0.0,8.0,66,-99.99,,,-99.99,,2013-01-15 23:43:00,
2013-01-15 18:53:00,38.0,28.0,-100.00,North,2,0.0,8.0,66,-99.99,,,-99.99,,2013-01-15 23:53:00,
2013-01-15 19:00:00,38.0,27.0,-100.00,North,5,0.0,6.0,65,-99.99,,,-99.99,,2013-01-16 00:00:00,
2013-01-15 19:23:00,38.0,27.0,-100.00,North,5,0.0,6.0,65,-99.99,,,-99.99,,2013-01-16 00:23:00,
2013-01-15 19:33:00,38.0,27.0,-100.00,North,5,0.0,6.0,65,-99.99,,,-99.99,,2013-01-16 00:33:00,
2013-01-15 19:43:00,38.0,27.0,-100.00,North,5,0.0,6.0,65,-99.99,,,-99.99,,2013-01-16 00:43:00,
2013-01-15 19:53:00,38.0,27.0,-100.00,North,5,0.0,6.0,65,-99.99,,,-99.99,,2013-01-16 00:53:00,
2013-01-15 20:00:00,38.0,27.0,-100.00,NNW,343,1.0,8.0,64,-99.99,,,-99.99,,2013-01-16 01:00:00,
2013-01-15 20:23:00,38.0,27.0,-100.00,NNW,343,1.0,8.0,64,-99.99,,,-99.99,,2013-01-16 01:23:00,
2013-01-15 20:33:00,38.0,27.0,-100.00,NNW,343,1.0,8.0,64,-99.99,,,-99.99,,2013-01-16 01:33:00,
2013-01-15 20:43:00,38.0,27.0,-100.00,NNW,343,1.0,8.0,64,-99.99,,,-99.99,,2013-01-16 01:43:00,
2013-01-15 20:53:00,38.0,27.0,-100.00,NNW,343,1.0,8.0,64,-99.99,,,-99.99,,2013-01-16 01:53:00,
2013-01-15 21:00:00,38.0,27.0,-100.00,NE,43,0.0,9.0,65,-99.99,,,-99.99,,2013-01-16 02:00:00,
2013-01-15 21:23:00,38.0,27.0,-100.00,NE,43,0.0,9.0,65,-99.99,,,-99.99,,2013-01-16 02:23:00,
2013-01-15 21:33:00,38.0,27.0,-100.00,NE,43,0.0,9.0,65,-99.99,,,-99.99,,2013-01-16 02:33:00,
2013-01-15 21:43:00,38.0,27.0,-100.00,NE,43,0.0,9.0,65,-99.99,,,-99.99,,2013-01-16 02:43:00,
2013-01-15 21:53:00,38.0,27.0,-100.00,NE,43,0.0,9.0,65,-99.99,,,-99.99,,2013-01-16 02:53:00,
2013-01-15 22:00:00,38.0,27.0,-100.00,NNE,31,5.0,10.0,63,-99.99,,,-99.99,,2013-01-16 03:00:00,
2013-01-15 22:23:00,38.0,27.0,-100.00,NNE,31,5.0,10.0,63,-99.99,,,-99.99,,2013-01-16 03:23:00,
2013-01-15 22:33:00,38.0,27.0,-100.00,NNE,31,5.0,10.0,63,-99.99,,,-99.99,,2013-01-16 03:33:00,
2013-01-15 22:43:00,38.0,27.0,-100.00,NNE,31,5.0,10.0,63,-99.99,,,-99.99,,2013-01-16 03:43:00,
2013-01-15 22:53:00,38.0,27.0,-100.00,NNE,31,5.0,10.0,63,-99.99,,,-99.99,,2013-01-16 03:53:00,
2013-01-15 23:00:00,37.0,31.0,-100.00,NNE,22,0.0,6.0,81,-99.99,,,-99.99,,2013-01-16 04:00:00,
2013-01-15 23:22:00,37.0,31.0,-100.00,NNE,22,0.0,6.0,81,-99.99,,,-99.99,,2013-01-16 04:22:00,
2013-01-15 23:33:00,37.0,31.0,-100.00,NNE,22,0.0,6.0,81,-99.99,,,-99.99,,2013-01-16 04:33:00,
2013-01-15 23:42:00,37.0,31.0,-100.00,NNE,22,0.0,6.0,81,-99.99,,,-99.99,,2013-01-16 04:42:00,
2013-01-15 23:53:00,37.0,31.0,-100.00,NNE,22,0.0,6.0,81,-99.99,,,-99.99,,2013-01-16 04:53:00,